Airfield :
LOGIN :

Register | Disclaimer

   EN    FR    IT 

 










Legend :    VFR   Marginal VFR   IFR   Intensive IFR   Very Intensive IFR
Visi :
Ceiling :
>= 8 km
>= 3000ft
5 to 8 km
1000 to 3000 ft
1500m to 5 km
500 to 1000 ft
800 to 1500m
200 to 500 ft
< 800m
< 200 ft
Symbols :   Thunderstorms  Fog  Heavy snow  Heavy precipitations  Wind > 20 kt
SIGMETs :     Misc.  Thunderstorms  Icing  Turbulence  Mountain Waves  Volcanic Ashes






- Airport Elevation : 218 ft


EGYD - RAF Cranwell

CURRENT METAR :
  • 050722Z 17007KT CAVOK 16/13 Q1006 NOSIG RMK BLU BLU

EXPIRED METARs :
  • 050703Z 18006KT 9000 HZ FEW004 15/13 Q1007 NOSIG RMK BLU BLU
  • 050650Z 15005KT 6000 BR FEW003 14/13 Q1007 BECMG 9999 NSW RMK WHT BECMG BLU
  • 050550Z 16006KT 4500 BR FEW002 BKN200 12/12 Q1007 BECMG 7000 HZ RMK GRN BECMG WHT
  • 050450Z AUTO 16005KT 3900 // BKN190/// 11/11 Q1007

TAF TAF EGYD
Valid from the 05 at 06:00 until the 05 at 15:00 UTC


050526Z 0506/0515 16008KT 4000 BR FEW002
BECMG 0506/0508 9999 NSW



MET'MAP, your aeronautical weather chart ! - Copyright ORBIFLY December 2007 - Disclaimer

ORBIFLY MET'MAP TEAM :

Programming & Development : Alexandra Zaïnal
Concept & original design : Baudouin d'Aumeries
Assistance for programming : Marc-Olivier Méhu
Technical & hardware support : Manuel Goepfert

Contact : metmap@orbifly.com




SOURCES & CREDITS :

   NOAA